sensor_id;sensor_type;location;lat;lon;timestamp;pressure;altitude;pressure_sealevel;temperature;humidity
7050;BME280;22263;52.260;10.548;2022-11-20T00:02:06;100241.31;;;-1.20;100.00
7050;BME280;22263;52.260;10.548;2022-11-20T00:04:36;100252.56;;;-1.13;100.00
7050;BME280;22263;52.260;10.548;2022-11-20T00:07:06;100241.03;;;-1.18;100.00
7050;BME280;22263;52.260;10.548;2022-11-20T00:09:35;100227.03;;;-1.12;100.00
7050;BME280;22263;52.260;10.548;2022-11-20T00:12:05;100236.78;;;-1.11;100.00
7050;BME280;22263;52.260;10.548;2022-11-20T00:14:37;100239.69;;;-1.07;100.00
7050;BME280;22263;52.260;10.548;2022-11-20T00:17:07;100222.28;;;-1.28;100.00
7050;BME280;22263;52.260;10.548;2022-11-20T00:19:37;100219.19;;;-1.36;100.00
7050;BME280;22263;52.260;10.548;2022-11-20T00:22:07;100230.84;;;-1.35;100.00
7050;BME280;22263;52.260;10.548;2022-11-20T00:24:36;100228.53;;;-1.42;100.00
7050;BME280;22263;52.260;10.548;2022-11-20T00:27:08;100211.75;;;-1.44;100.00
7050;BME280;22263;52.260;10.548;2022-11-20T00:29:41;100217.59;;;-1.37;100.00
7050;BME280;22263;52.260;10.548;2022-11-20T00:32:10;100225.66;;;-1.23;100.00
7050;BME280;22263;52.260;10.548;2022-11-20T00:34:40;100222.38;;;-1.34;100.00
7050;BME280;22263;52.260;10.548;2022-11-20T00:37:09;100217.50;;;-1.45;100.00
7050;BME280;22263;52.260;10.548;2022-11-20T00:39:39;100214.56;;;-1.35;100.00
7050;BME280;22263;52.260;10.548;2022-11-20T00:42:09;100215.22;;;-1.52;100.00
7050;BME280;22263;52.260;10.548;2022-11-20T00:44:43;100210.88;;;-1.53;100.00
7050;BME280;22263;52.260;10.548;2022-11-20T00:47:12;100209.31;;;-1.54;100.00
7050;BME280;22263;52.260;10.548;2022-11-20T00:49:42;100212.13;;;-1.59;100.00
7050;BME280;22263;52.260;10.548;2022-11-20T00:52:12;100218.75;;;-1.65;100.00
7050;BME280;22263;52.260;10.548;2022-11-20T00:54:41;100215.06;;;-1.69;100.00
7050;BME280;22263;52.260;10.548;2022-11-20T00:57:11;100218.09;;;-1.84;100.00
7050;BME280;22263;52.260;10.548;2022-11-20T00:59:43;100215.47;;;-1.89;100.00
7050;BME280;22263;52.260;10.548;2022-11-20T01:02:13;100211.66;;;-1.88;100.00
7050;BME280;22263;52.260;10.548;2022-11-20T01:04:42;100217.88;;;-1.74;100.00
7050;BME280;22263;52.260;10.548;2022-11-20T01:07:12;100203.84;;;-1.90;100.00
7050;BME280;22263;52.260;10.548;2022-11-20T01:09:42;100218.47;;;-1.77;100.00
7050;BME280;22263;52.260;10.548;2022-11-20T01:12:11;100202.66;;;-1.97;100.00
7050;BME280;22263;52.260;10.548;2022-11-20T01:14:43;100214.69;;;-1.90;100.00
7050;BME280;22263;52.260;10.548;2022-11-20T01:17:13;100200.84;;;-1.88;100.00
7050;BME280;22263;52.260;10.548;2022-11-20T01:19:43;100212.16;;;-1.86;100.00
7050;BME280;22263;52.260;10.548;2022-11-20T01:22:13;100210.78;;;-1.97;100.00
7050;BME280;22263;52.260;10.548;2022-11-20T01:24:43;100194.91;;;-1.90;100.00
7050;BME280;22263;52.260;10.548;2022-11-20T01:27:12;100202.63;;;-1.84;100.00
7050;BME280;22263;52.260;10.548;2022-11-20T01:29:44;100194.31;;;-1.87;100.00
7050;BME280;22263;52.260;10.548;2022-11-20T01:32:14;100187.41;;;-2.07;100.00
7050;BME280;22263;52.260;10.548;2022-11-20T01:34:44;100191.41;;;-2.04;100.00
7050;BME280;22263;52.260;10.548;2022-11-20T01:37:14;100195.81;;;-1.95;100.00
7050;BME280;22263;52.260;10.548;2022-11-20T01:39:43;100192.59;;;-2.10;100.00
7050;BME280;22263;52.260;10.548;2022-11-20T01:42:13;100178.56;;;-1.99;100.00
7050;BME280;22263;52.260;10.548;2022-11-20T01:44:59;100181.28;;;-1.99;100.00
7050;BME280;22263;52.260;10.548;2022-11-20T01:47:32;100181.66;;;-2.05;100.00
7050;BME280;22263;52.260;10.548;2022-11-20T01:50:06;100164.84;;;-2.30;100.00
7050;BME280;22263;52.260;10.548;2022-11-20T01:52:44;100168.34;;;-2.29;100.00
7050;BME280;22263;52.260;10.548;2022-11-20T01:55:18;100176.47;;;-2.29;100.00
7050;BME280;22263;52.260;10.548;2022-11-20T01:57:49;100177.78;;;-2.27;100.00
7050;BME280;22263;52.260;10.548;2022-11-20T02:00:21;100166.97;;;-2.27;100.00
7050;BME280;22263;52.260;10.548;2022-11-20T02:02:53;100166.25;;;-2.18;100.00
7050;BME280;22263;52.260;10.548;2022-11-20T02:05:29;100162.25;;;-2.21;100.00
7050;BME280;22263;52.260;10.548;2022-11-20T02:08:03;100150.72;;;-2.27;100.00
7050;BME280;22263;52.260;10.548;2022-11-20T02:10:33;100153.31;;;-2.22;100.00
7050;BME280;22263;52.260;10.548;2022-11-20T02:13:03;100158.31;;;-2.29;100.00
7050;BME280;22263;52.260;10.548;2022-11-20T02:15:48;100160.53;;;-2.31;100.00
7050;BME280;22263;52.260;10.548;2022-11-20T02:18:20;100160.84;;;-2.32;100.00
7050;BME280;22263;52.260;10.548;2022-11-20T02:20:53;100154.63;;;-2.33;100.00
7050;BME280;22263;52.260;10.548;2022-11-20T02:23:29;100161.31;;;-2.44;100.00
7050;BME280;22263;52.260;10.548;2022-11-20T02:26:06;100161.13;;;-2.34;100.00
7050;BME280;22263;52.260;10.548;2022-11-20T02:28:37;100149.81;;;-2.36;100.00
7050;BME280;22263;52.260;10.548;2022-11-20T02:31:07;100151.28;;;-2.30;100.00
7050;BME280;22263;52.260;10.548;2022-11-20T02:33:37;100154.09;;;-2.35;100.00
7050;BME280;22263;52.260;10.548;2022-11-20T02:36:08;100147.22;;;-2.41;100.00
7050;BME280;22263;52.260;10.548;2022-11-20T02:38:41;100157.50;;;-2.29;100.00
7050;BME280;22263;52.260;10.548;2022-11-20T02:41:13;100157.41;;;-2.24;100.00
7050;BME280;22263;52.260;10.548;2022-11-20T02:43:43;100137.56;;;-2.20;100.00
7050;BME280;22263;52.260;10.548;2022-11-20T02:46:12;100141.69;;;-2.22;100.00
7050;BME280;22263;52.260;10.548;2022-11-20T02:51:37;100141.16;;;-2.10;100.00
7050;BME280;22263;52.260;10.548;2022-11-20T02:54:07;100135.84;;;-2.15;100.00
7050;BME280;22263;52.260;10.548;2022-11-20T02:56:40;100137.25;;;-2.04;100.00
7050;BME280;22263;52.260;10.548;2022-11-20T02:59:10;100142.84;;;-2.01;100.00
7050;BME280;22263;52.260;10.548;2022-11-20T03:01:40;100147.25;;;-1.91;100.00
7050;BME280;22263;52.260;10.548;2022-11-20T03:04:09;100126.28;;;-1.99;100.00
7050;BME280;22263;52.260;10.548;2022-11-20T03:06:40;100146.75;;;-1.93;100.00
7050;BME280;22263;52.260;10.548;2022-11-20T03:09:10;100141.16;;;-1.97;100.00
7050;BME280;22263;52.260;10.548;2022-11-20T03:11:42;100140.34;;;-1.97;100.00
7050;BME280;22263;52.260;10.548;2022-11-20T03:14:12;100125.09;;;-1.93;100.00
7050;BME280;22263;52.260;10.548;2022-11-20T03:16:41;100140.19;;;-1.79;100.00
7050;BME280;22263;52.260;10.548;2022-11-20T03:19:11;100145.28;;;-1.77;100.00
7050;BME280;22263;52.260;10.548;2022-11-20T03:21:41;100135.84;;;-2.02;100.00
7050;BME280;22263;52.260;10.548;2022-11-20T03:24:10;100136.50;;;-1.96;100.00
7050;BME280;22263;52.260;10.548;2022-11-20T03:26:43;100140.00;;;-1.82;100.00
7050;BME280;22263;52.260;10.548;2022-11-20T03:29:12;100140.25;;;-1.92;100.00
7050;BME280;22263;52.260;10.548;2022-11-20T03:31:42;100140.84;;;-2.09;100.00
7050;BME280;22263;52.260;10.548;2022-11-20T03:34:12;100134.13;;;-1.98;100.00
7050;BME280;22263;52.260;10.548;2022-11-20T03:36:43;100139.06;;;-2.13;100.00
7050;BME280;22263;52.260;10.548;2022-11-20T03:39:13;100127.03;;;-2.07;100.00
7050;BME280;22263;52.260;10.548;2022-11-20T03:41:45;100125.22;;;-2.12;100.00
7050;BME280;22263;52.260;10.548;2022-11-20T03:44:14;100117.31;;;-2.36;100.00
7050;BME280;22263;52.260;10.548;2022-11-20T03:46:44;100128.34;;;-2.18;100.00
7050;BME280;22263;52.260;10.548;2022-11-20T03:49:14;100126.94;;;-2.16;100.00
7050;BME280;22263;52.260;10.548;2022-11-20T03:51:43;100118.81;;;-2.30;100.00
7050;BME280;22263;52.260;10.548;2022-11-20T03:54:14;100110.00;;;-2.22;100.00
7050;BME280;22263;52.260;10.548;2022-11-20T03:56:46;100115.41;;;-2.22;100.00
7050;BME280;22263;52.260;10.548;2022-11-20T03:59:15;100108.38;;;-2.23;100.00
7050;BME280;22263;52.260;10.548;2022-11-20T04:01:45;100107.38;;;-2.27;100.00
7050;BME280;22263;52.260;10.548;2022-11-20T04:04:15;100105.00;;;-2.42;100.00
7050;BME280;22263;52.260;10.548;2022-11-20T04:06:45;100101.66;;;-2.39;100.00
7050;BME280;22263;52.260;10.548;2022-11-20T04:09:14;100093.47;;;-2.47;100.00
7050;BME280;22263;52.260;10.548;2022-11-20T04:11:47;100104.19;;;-2.42;100.00
7050;BME280;22263;52.260;10.548;2022-11-20T04:14:17;100103.56;;;-2.39;100.00
7050;BME280;22263;52.260;10.548;2022-11-20T04:16:47;100088.34;;;-2.49;100.00
7050;BME280;22263;52.260;10.548;2022-11-20T04:19:16;100097.34;;;-2.40;100.00
7050;BME280;22263;52.260;10.548;2022-11-20T04:21:46;100096.56;;;-2.27;100.00
7050;BME280;22263;52.260;10.548;2022-11-20T04:24:16;100101.75;;;-2.30;100.00
7050;BME280;22263;52.260;10.548;2022-11-20T04:26:48;100090.25;;;-2.36;100.00
7050;BME280;22263;52.260;10.548;2022-11-20T04:29:18;100095.56;;;-2.31;100.00
7050;BME280;22263;52.260;10.548;2022-11-20T04:31:48;100087.44;;;-2.44;100.00
7050;BME280;22263;52.260;10.548;2022-11-20T04:34:18;100096.25;;;-2.39;100.00
7050;BME280;22263;52.260;10.548;2022-11-20T04:36:47;100096.06;;;-2.42;100.00
7050;BME280;22263;52.260;10.548;2022-11-20T04:39:17;100088.75;;;-2.42;100.00
7050;BME280;22263;52.260;10.548;2022-11-20T04:41:49;100087.03;;;-2.38;100.00
7050;BME280;22263;52.260;10.548;2022-11-20T04:44:39;100093.34;;;-2.29;100.00
7050;BME280;22263;52.260;10.548;2022-11-20T04:47:09;100092.97;;;-2.36;100.00
7050;BME280;22263;52.260;10.548;2022-11-20T04:49:38;100094.66;;;-2.26;100.00
7050;BME280;22263;52.260;10.548;2022-11-20T04:52:08;100101.84;;;-2.08;100.00
7050;BME280;22263;52.260;10.548;2022-11-20T04:54:38;100092.72;;;-2.12;100.00
7050;BME280;22263;52.260;10.548;2022-11-20T04:57:10;100092.72;;;-2.12;100.00
7050;BME280;22263;52.260;10.548;2022-11-20T04:59:41;100088.78;;;-2.06;100.00
7050;BME280;22263;52.260;10.548;2022-11-20T05:02:11;100088.88;;;-2.11;100.00
7050;BME280;22263;52.260;10.548;2022-11-20T05:04:41;100085.50;;;-2.16;100.00
7050;BME280;22263;52.260;10.548;2022-11-20T05:07:11;100098.25;;;-2.17;100.00
7050;BME280;22263;52.260;10.548;2022-11-20T05:09:41;100090.53;;;-2.24;100.00
7050;BME280;22263;52.260;10.548;2022-11-20T05:12:13;100070.69;;;-2.33;100.00
7050;BME280;22263;52.260;10.548;2022-11-20T05:14:43;100077.28;;;-2.25;100.00
7050;BME280;22263;52.260;10.548;2022-11-20T05:17:12;100089.13;;;-2.21;100.00
7050;BME280;22263;52.260;10.548;2022-11-20T05:19:42;100080.91;;;-2.30;100.00
7050;BME280;22263;52.260;10.548;2022-11-20T05:22:18;100084.13;;;-2.41;100.00
7050;BME280;22263;52.260;10.548;2022-11-20T05:24:48;100090.03;;;-2.39;100.00
7050;BME280;22263;52.260;10.548;2022-11-20T05:27:20;100083.13;;;-2.32;100.00
7050;BME280;22263;52.260;10.548;2022-11-20T05:29:50;100085.75;;;-2.40;100.00
7050;BME280;22263;52.260;10.548;2022-11-20T05:32:19;100082.75;;;-2.52;100.00
7050;BME280;22263;52.260;10.548;2022-11-20T05:34:51;100083.16;;;-2.59;100.00
7050;BME280;22263;52.260;10.548;2022-11-20T05:37:21;100079.72;;;-2.37;100.00
7050;BME280;22263;52.260;10.548;2022-11-20T05:39:51;100080.22;;;-2.35;100.00
7050;BME280;22263;52.260;10.548;2022-11-20T05:42:23;100076.63;;;-2.31;100.00
7050;BME280;22263;52.260;10.548;2022-11-20T05:45:03;100077.19;;;-2.34;100.00
7050;BME280;22263;52.260;10.548;2022-11-20T05:47:34;100072.72;;;-2.52;100.00
7050;BME280;22263;52.260;10.548;2022-11-20T05:50:04;100062.69;;;-2.51;100.00
7050;BME280;22263;52.260;10.548;2022-11-20T05:52:34;100065.88;;;-2.36;100.00
7050;BME280;22263;52.260;10.548;2022-11-20T05:55:05;100053.44;;;-2.37;100.00
7050;BME280;22263;52.260;10.548;2022-11-20T05:57:37;100039.84;;;-2.45;100.00
7050;BME280;22263;52.260;10.548;2022-11-20T06:00:08;100049.88;;;-2.46;100.00
7050;BME280;22263;52.260;10.548;2022-11-20T06:02:38;100059.00;;;-2.55;100.00
7050;BME280;22263;52.260;10.548;2022-11-20T06:05:08;100053.66;;;-2.47;100.00
7050;BME280;22263;52.260;10.548;2022-11-20T06:07:38;100074.00;;;-2.36;100.00
7050;BME280;22263;52.260;10.548;2022-11-20T06:10:08;100065.34;;;-2.24;100.00
7050;BME280;22263;52.260;10.548;2022-11-20T06:12:41;100070.38;;;-2.17;100.00
7050;BME280;22263;52.260;10.548;2022-11-20T06:15:10;100073.25;;;-2.14;100.00
7050;BME280;22263;52.260;10.548;2022-11-20T06:17:40;100063.34;;;-2.18;100.00
7050;BME280;22263;52.260;10.548;2022-11-20T06:20:10;100061.22;;;-2.08;100.00
7050;BME280;22263;52.260;10.548;2022-11-20T06:22:40;100061.56;;;-2.01;100.00
7050;BME280;22263;52.260;10.548;2022-11-20T06:25:10;100063.69;;;-1.98;100.00
7050;BME280;22263;52.260;10.548;2022-11-20T06:27:42;100055.97;;;-2.04;100.00
7050;BME280;22263;52.260;10.548;2022-11-20T06:30:13;100057.78;;;-2.00;100.00
7050;BME280;22263;52.260;10.548;2022-11-20T06:32:42;100058.91;;;-2.14;100.00
7050;BME280;22263;52.260;10.548;2022-11-20T06:35:12;100049.56;;;-2.08;100.00
7050;BME280;22263;52.260;10.548;2022-11-20T06:37:42;100039.31;;;-1.98;100.00
7050;BME280;22263;52.260;10.548;2022-11-20T06:40:12;100045.31;;;-2.01;100.00
7050;BME280;22263;52.260;10.548;2022-11-20T06:42:44;100047.84;;;-2.04;100.00
7050;BME280;22263;52.260;10.548;2022-11-20T06:45:14;100026.13;;;-2.13;100.00
7050;BME280;22263;52.260;10.548;2022-11-20T06:47:43;100049.34;;;-1.98;100.00
7050;BME280;22263;52.260;10.548;2022-11-20T06:50:13;100049.94;;;-2.01;100.00
7050;BME280;22263;52.260;10.548;2022-11-20T06:52:43;100037.72;;;-1.99;100.00
7050;BME280;22263;52.260;10.548;2022-11-20T06:55:12;100026.56;;;-1.97;100.00
7050;BME280;22263;52.260;10.548;2022-11-20T06:57:44;100035.06;;;-1.90;100.00
7050;BME280;22263;52.260;10.548;2022-11-20T07:00:21;100025.94;;;-1.94;100.00
7050;BME280;22263;52.260;10.548;2022-11-20T07:02:51;100036.50;;;-1.93;100.00
7050;BME280;22263;52.260;10.548;2022-11-20T07:05:20;100027.06;;;-1.95;100.00
7050;BME280;22263;52.260;10.548;2022-11-20T07:07:50;100038.28;;;-1.88;100.00
7050;BME280;22263;52.260;10.548;2022-11-20T07:10:19;100047.91;;;-1.96;100.00
7050;BME280;22263;52.260;10.548;2022-11-20T07:12:52;100037.19;;;-1.87;100.00
7050;BME280;22263;52.260;10.548;2022-11-20T07:15:23;100034.53;;;-1.79;100.00
7050;BME280;22263;52.260;10.548;2022-11-20T07:17:53;100038.84;;;-1.78;100.00
7050;BME280;22263;52.260;10.548;2022-11-20T07:20:23;100033.03;;;-1.85;100.00
7050;BME280;22263;52.260;10.548;2022-11-20T07:22:53;100026.75;;;-1.94;100.00
7050;BME280;22263;52.260;10.548;2022-11-20T07:25:24;100037.19;;;-1.87;100.00
7050;BME280;22263;52.260;10.548;2022-11-20T07:27:59;100032.00;;;-1.97;100.00
7050;BME280;22263;52.260;10.548;2022-11-20T07:30:30;100024.97;;;-1.98;100.00
7050;BME280;22263;52.260;10.548;2022-11-20T07:33:00;100026.81;;;-1.85;100.00
7050;BME280;22263;52.260;10.548;2022-11-20T07:35:29;100038.88;;;-1.91;100.00
7050;BME280;22263;52.260;10.548;2022-11-20T07:37:59;100032.66;;;-1.92;100.00
7050;BME280;22263;52.260;10.548;2022-11-20T07:40:28;100042.25;;;-1.86;100.00
7050;BME280;22263;52.260;10.548;2022-11-20T07:43:01;100034.66;;;-1.84;100.00
7050;BME280;22263;52.260;10.548;2022-11-20T07:45:30;100031.75;;;-1.87;100.00
7050;BME280;22263;52.260;10.548;2022-11-20T07:48:00;100031.59;;;-1.82;100.00
7050;BME280;22263;52.260;10.548;2022-11-20T07:50:29;100027.44;;;-1.88;100.00
7050;BME280;22263;52.260;10.548;2022-11-20T07:53:03;100032.78;;;-1.74;100.00
7050;BME280;22263;52.260;10.548;2022-11-20T07:55:32;100038.22;;;-1.74;100.00
7050;BME280;22263;52.260;10.548;2022-11-20T07:58:05;100027.69;;;-1.76;100.00
7050;BME280;22263;52.260;10.548;2022-11-20T08:00:35;100028.19;;;-1.74;100.00
7050;BME280;22263;52.260;10.548;2022-11-20T08:03:05;100031.47;;;-1.77;100.00
7050;BME280;22263;52.260;10.548;2022-11-20T08:05:35;100031.88;;;-1.70;100.00
7050;BME280;22263;52.260;10.548;2022-11-20T08:08:05;100010.94;;;-1.78;100.00
7050;BME280;22263;52.260;10.548;2022-11-20T08:10:34;100026.31;;;-1.65;100.00
7050;BME280;22263;52.260;10.548;2022-11-20T08:13:08;100018.66;;;-1.63;100.00
7050;BME280;22263;52.260;10.548;2022-11-20T08:15:50;100025.09;;;-1.59;100.00
7050;BME280;22263;52.260;10.548;2022-11-20T08:18:20;100023.50;;;-1.60;100.00
7050;BME280;22263;52.260;10.548;2022-11-20T08:21:02;100028.31;;;-1.48;100.00
7050;BME280;22263;52.260;10.548;2022-11-20T08:23:32;100018.50;;;-1.44;100.00
7050;BME280;22263;52.260;10.548;2022-11-20T08:26:01;100025.94;;;-1.50;100.00
7050;BME280;22263;52.260;10.548;2022-11-20T08:28:34;100041.03;;;-1.35;100.00
7050;BME280;22263;52.260;10.548;2022-11-20T08:31:04;100037.00;;;-1.38;100.00
7050;BME280;22263;52.260;10.548;2022-11-20T08:33:33;100032.22;;;-1.41;100.00
7050;BME280;22263;52.260;10.548;2022-11-20T08:36:04;100037.19;;;-1.34;100.00
7050;BME280;22263;52.260;10.548;2022-11-20T08:38:34;100040.69;;;-1.34;100.00
7050;BME280;22263;52.260;10.548;2022-11-20T08:41:05;100039.56;;;-1.41;100.00
7050;BME280;22263;52.260;10.548;2022-11-20T08:43:51;100043.38;;;-1.42;100.00
7050;BME280;22263;52.260;10.548;2022-11-20T08:46:21;100032.41;;;-1.37;100.00
7050;BME280;22263;52.260;10.548;2022-11-20T08:48:52;100040.41;;;-1.32;100.00
7050;BME280;22263;52.260;10.548;2022-11-20T08:51:22;100039.34;;;-1.22;100.00
7050;BME280;22263;52.260;10.548;2022-11-20T08:53:51;100039.34;;;-1.22;100.00
7050;BME280;22263;52.260;10.548;2022-11-20T08:56:21;100037.47;;;-1.13;100.00
7050;BME280;22263;52.260;10.548;2022-11-20T08:58:53;100027.25;;;-1.16;100.00
7050;BME280;22263;52.260;10.548;2022-11-20T09:01:43;100033.66;;;-1.12;100.00
7050;BME280;22263;52.260;10.548;2022-11-20T09:04:16;100035.06;;;-1.15;100.00
7050;BME280;22263;52.260;10.548;2022-11-20T09:06:46;100036.81;;;-1.10;100.00
7050;BME280;22263;52.260;10.548;2022-11-20T09:09:17;100035.16;;;-0.98;100.00
7050;BME280;22263;52.260;10.548;2022-11-20T09:11:48;100022.69;;;-0.99;100.00
7050;BME280;22263;52.260;10.548;2022-11-20T09:14:21;100026.50;;;-1.00;100.00
7050;BME280;22263;52.260;10.548;2022-11-20T09:16:55;100010.06;;;-1.03;100.00
7050;BME280;22263;52.260;10.548;2022-11-20T09:19:25;100024.28;;;-0.98;100.00
7050;BME280;22263;52.260;10.548;2022-11-20T09:22:01;100023.66;;;-0.95;100.00
7050;BME280;22263;52.260;10.548;2022-11-20T09:24:31;100009.94;;;-0.90;100.00
7050;BME280;22263;52.260;10.548;2022-11-20T09:27:04;99993.50;;;-0.93;100.00
7050;BME280;22263;52.260;10.548;2022-11-20T09:29:37;99984.13;;;-0.87;100.00
7050;BME280;22263;52.260;10.548;2022-11-20T09:32:06;99980.91;;;-0.80;100.00
7050;BME280;22263;52.260;10.548;2022-11-20T09:34:36;99988.47;;;-0.60;100.00
7050;BME280;22263;52.260;10.548;2022-11-20T09:37:05;99997.94;;;-0.49;100.00
7050;BME280;22263;52.260;10.548;2022-11-20T09:39:35;99998.09;;;-0.37;100.00
7050;BME280;22263;52.260;10.548;2022-11-20T09:42:20;100007.22;;;-0.07;100.00
7050;BME280;22263;52.260;10.548;2022-11-20T09:45:16;100002.69;;;0.49;100.00
7050;BME280;22263;52.260;10.548;2022-11-20T09:48:01;99996.25;;;1.08;100.00
7050;BME280;22263;52.260;10.548;2022-11-20T09:50:36;99999.66;;;0.97;100.00
7050;BME280;22263;52.260;10.548;2022-11-20T09:53:14;99995.16;;;1.01;100.00
7050;BME280;22263;52.260;10.548;2022-11-20T09:55:47;100001.22;;;1.06;100.00
7050;BME280;22263;52.260;10.548;2022-11-20T09:58:30;99991.66;;;0.92;100.00
7050;BME280;22263;52.260;10.548;2022-11-20T10:01:11;99999.19;;;0.95;100.00
7050;BME280;22263;52.260;10.548;2022-11-20T10:03:49;99993.25;;;0.93;100.00
7050;BME280;22263;52.260;10.548;2022-11-20T10:06:26;99981.78;;;1.16;100.00
7050;BME280;22263;52.260;10.548;2022-11-20T10:09:16;99982.41;;;1.72;100.00
7050;BME280;22263;52.260;10.548;2022-11-20T10:12:02;99987.47;;;1.82;100.00
7050;BME280;22263;52.260;10.548;2022-11-20T10:14:42;99981.34;;;1.85;100.00
7050;BME280;22263;52.260;10.548;2022-11-20T10:17:26;99966.50;;;2.15;100.00
7050;BME280;22263;52.260;10.548;2022-11-20T10:20:12;99955.50;;;3.30;100.00
7050;BME280;22263;52.260;10.548;2022-11-20T10:22:53;99980.22;;;4.25;100.00
7050;BME280;22263;52.260;10.548;2022-11-20T10:25:33;99971.09;;;3.93;100.00
7050;BME280;22263;52.260;10.548;2022-11-20T10:28:22;99981.25;;;3.29;100.00
7050;BME280;22263;52.260;10.548;2022-11-20T10:30:59;100002.63;;;3.02;100.00
7050;BME280;22263;52.260;10.548;2022-11-20T10:33:34;100000.53;;;2.63;100.00
7050;BME280;22263;52.260;10.548;2022-11-20T10:36:28;99989.84;;;2.25;100.00
7050;BME280;22263;52.260;10.548;2022-11-20T10:39:03;99989.44;;;2.14;100.00
7050;BME280;22263;52.260;10.548;2022-11-20T10:41:40;99978.31;;;2.52;100.00
7050;BME280;22263;52.260;10.548;2022-11-20T10:44:12;99969.53;;;3.16;100.00
7050;BME280;22263;52.260;10.548;2022-11-20T10:47:04;99968.47;;;3.33;100.00
7050;BME280;22263;52.260;10.548;2022-11-20T10:49:37;99971.75;;;3.63;100.00
7050;BME280;22263;52.260;10.548;2022-11-20T10:52:12;99970.66;;;3.39;100.00
7050;BME280;22263;52.260;10.548;2022-11-20T10:54:49;99973.50;;;3.19;100.00
7050;BME280;22263;52.260;10.548;2022-11-20T10:57:35;99971.31;;;3.12;100.00
7050;BME280;22263;52.260;10.548;2022-11-20T11:00:12;99964.91;;;4.52;100.00
7050;BME280;22263;52.260;10.548;2022-11-20T11:02:46;99973.53;;;3.83;100.00
7050;BME280;22263;52.260;10.548;2022-11-20T11:05:25;99942.94;;;3.53;100.00
7050;BME280;22263;52.260;10.548;2022-11-20T11:07:58;99957.16;;;3.99;100.00
7050;BME280;22263;52.260;10.548;2022-11-20T11:10:35;99952.94;;;4.29;100.00
7050;BME280;22263;52.260;10.548;2022-11-20T11:13:19;99954.03;;;5.18;97.21
7050;BME280;22263;52.260;10.548;2022-11-20T11:15:50;99949.81;;;5.05;95.74
7050;BME280;22263;52.260;10.548;2022-11-20T11:18:24;99953.19;;;7.33;75.22
7050;BME280;22263;52.260;10.548;2022-11-20T11:20:57;99956.41;;;7.65;65.30
7050;BME280;22263;52.260;10.548;2022-11-20T11:23:32;99938.69;;;9.61;57.09
7050;BME280;22263;52.260;10.548;2022-11-20T11:26:03;99935.56;;;10.63;54.33
7050;BME280;22263;52.260;10.548;2022-11-20T11:28:34;99935.28;;;9.24;53.88
7050;BME280;22263;52.260;10.548;2022-11-20T11:31:03;99937.00;;;8.51;56.82
7050;BME280;22263;52.260;10.548;2022-11-20T11:33:35;99943.94;;;8.34;56.23
7050;BME280;22263;52.260;10.548;2022-11-20T11:36:19;99948.88;;;6.22;68.31
7050;BME280;22263;52.260;10.548;2022-11-20T11:38:52;99944.25;;;5.52;84.11
7050;BME280;22263;52.260;10.548;2022-11-20T11:41:25;99947.72;;;6.65;74.33
7050;BME280;22263;52.260;10.548;2022-11-20T11:44:00;99939.56;;;8.70;61.89
7050;BME280;22263;52.260;10.548;2022-11-20T11:46:50;99937.97;;;9.71;54.26
7050;BME280;22263;52.260;10.548;2022-11-20T11:49:22;99926.59;;;9.22;55.50
7050;BME280;22263;52.260;10.548;2022-11-20T11:52:09;99921.53;;;8.80;54.05
7050;BME280;22263;52.260;10.548;2022-11-20T11:54:45;99923.69;;;10.56;52.10
7050;BME280;22263;52.260;10.548;2022-11-20T11:57:23;99921.38;;;11.21;48.13
7050;BME280;22263;52.260;10.548;2022-11-20T12:00:01;99939.25;;;8.08;55.39
7050;BME280;22263;52.260;10.548;2022-11-20T12:02:42;99938.59;;;5.80;71.93
7050;BME280;22263;52.260;10.548;2022-11-20T12:05:21;99922.56;;;5.63;82.69
7050;BME280;22263;52.260;10.548;2022-11-20T12:07:59;99937.19;;;4.54;87.14
7050;BME280;22263;52.260;10.548;2022-11-20T12:10:41;99918.59;;;3.88;97.02
7050;BME280;22263;52.260;10.548;2022-11-20T12:13:20;99930.50;;;3.68;100.00
7050;BME280;22263;52.260;10.548;2022-11-20T12:15:53;99918.16;;;3.34;100.00
7050;BME280;22263;52.260;10.548;2022-11-20T12:18:22;99926.13;;;3.27;100.00
7050;BME280;22263;52.260;10.548;2022-11-20T12:21:07;99910.66;;;3.31;100.00
7050;BME280;22263;52.260;10.548;2022-11-20T12:23:51;99918.59;;;3.48;100.00
7050;BME280;22263;52.260;10.548;2022-11-20T12:26:34;99916.28;;;4.18;100.00
7050;BME280;22263;52.260;10.548;2022-11-20T12:29:14;99914.56;;;4.41;100.00
7050;BME280;22263;52.260;10.548;2022-11-20T12:32:00;99923.25;;;4.74;100.00
7050;BME280;22263;52.260;10.548;2022-11-20T12:34:44;99915.25;;;5.01;99.67
7050;BME280;22263;52.260;10.548;2022-11-20T12:37:26;99908.03;;;4.61;99.95
7050;BME280;22263;52.260;10.548;2022-11-20T12:40:13;99918.03;;;3.42;100.00
7050;BME280;22263;52.260;10.548;2022-11-20T12:42:53;99899.03;;;3.22;100.00
7050;BME280;22263;52.260;10.548;2022-11-20T12:46:13;99912.72;;;3.10;100.00
7050;BME280;22263;52.260;10.548;2022-11-20T12:52:06;99925.66;;;2.64;100.00
7050;BME280;22263;52.260;10.548;2022-11-20T12:54:57;99910.22;;;2.68;100.00
7050;BME280;22263;52.260;10.548;2022-11-20T12:57:39;99903.38;;;2.74;100.00
7050;BME280;22263;52.260;10.548;2022-11-20T13:00:17;99908.84;;;2.74;100.00
7050;BME280;22263;52.260;10.548;2022-11-20T13:03:09;99905.56;;;2.93;100.00
7050;BME280;22263;52.260;10.548;2022-11-20T13:05:53;99901.81;;;3.10;100.00
7050;BME280;22263;52.260;10.548;2022-11-20T13:08:27;99899.59;;;3.39;100.00
7050;BME280;22263;52.260;10.548;2022-11-20T13:11:02;99897.78;;;3.99;100.00
7050;BME280;22263;52.260;10.548;2022-11-20T13:13:47;99875.44;;;4.41;100.00
7050;BME280;22263;52.260;10.548;2022-11-20T13:16:27;99895.81;;;5.41;100.00
7050;BME280;22263;52.260;10.548;2022-11-20T13:19:02;99886.34;;;5.92;95.53
7050;BME280;22263;52.260;10.548;2022-11-20T13:21:37;99890.88;;;5.65;94.85
7050;BME280;22263;52.260;10.548;2022-11-20T13:24:21;99881.75;;;5.61;92.97